createdAt,value
2023-01-02T00:02:06.820Z,9.45
2023-01-02T00:07:08.287Z,11.30
2023-01-02T00:17:20.588Z,9.40
2023-01-02T00:22:21.940Z,9.27
2023-01-02T00:27:23.279Z,8.75
2023-01-02T00:32:24.671Z,7.20
2023-01-02T00:37:26.051Z,7.40
2023-01-02T00:42:27.437Z,7.18
2023-01-02T00:47:28.781Z,6.38
2023-01-02T00:52:30.144Z,7.63
2023-01-02T00:57:31.543Z,7.07
2023-01-02T01:02:33.277Z,5.90
2023-01-02T01:07:34.728Z,5.80
2023-01-02T01:12:36.072Z,6.43
2023-01-02T01:17:37.437Z,6.93
2023-01-02T01:22:38.821Z,5.30
2023-01-02T01:27:40.216Z,4.68
2023-01-02T01:32:41.635Z,4.45
2023-01-02T01:37:43.149Z,4.05
2023-01-02T01:42:44.507Z,3.97
2023-01-02T01:47:55.009Z,4.30
2023-01-02T01:53:08.641Z,4.40
2023-01-02T01:58:19.085Z,4.25
2023-01-02T02:03:24.025Z,4.03
2023-01-02T02:08:56.541Z,4.30
2023-01-02T02:13:59.881Z,4.30
2023-01-02T02:19:49.253Z,4.18
2023-01-02T02:24:53.410Z,4.43
2023-01-02T02:30:16.797Z,3.92
2023-01-02T02:35:49.666Z,3.67
2023-01-02T02:41:14.309Z,4.25
2023-01-02T02:46:22.316Z,4.63
2023-01-02T02:51:35.366Z,4.13
2023-01-02T02:56:36.820Z,4.70
2023-01-02T03:01:38.790Z,6.03
2023-01-02T03:07:21.733Z,5.55
2023-01-02T03:13:00.741Z,5.07
2023-01-02T03:18:04.845Z,4.85
2023-01-02T03:23:13.277Z,5.80
2023-01-02T03:28:18.195Z,5.38
2023-01-02T03:33:29.801Z,7.20
2023-01-02T03:38:36.626Z,6.53
2023-01-02T03:43:41.380Z,6.47
2023-01-02T03:48:45.444Z,6.55
2023-01-02T03:53:49.992Z,5.70
2023-01-02T03:58:58.481Z,6.05
2023-01-02T04:04:10.687Z,5.60
2023-01-02T04:09:26.103Z,7.22
2023-01-02T04:14:47.902Z,5.95
2023-01-02T04:19:54.433Z,6.47
2023-01-02T04:25:09.897Z,6.40
2023-01-02T04:30:11.430Z,6.60
2023-01-02T04:35:20.281Z,5.55
2023-01-02T04:40:30.789Z,5.40
2023-01-02T04:45:32.141Z,6.38
2023-01-02T04:50:33.511Z,5.72
2023-01-02T04:55:35.004Z,5.13
2023-01-02T05:00:36.424Z,5.00
2023-01-02T05:05:37.782Z,5.75
2023-01-02T05:10:39.205Z,5.07
2023-01-02T05:15:40.641Z,5.25
2023-01-02T05:20:41.979Z,5.03
2023-01-02T05:25:43.312Z,4.43
2023-01-02T05:30:44.787Z,5.63
2023-01-02T05:35:46.163Z,5.55
2023-01-02T05:40:47.511Z,3.92
2023-01-02T05:45:48.854Z,5.07
2023-01-02T05:50:50.421Z,4.45
2023-01-02T05:55:51.766Z,4.88
2023-01-02T06:00:53.107Z,5.43
2023-01-02T06:05:54.446Z,4.63
2023-01-02T06:10:55.865Z,4.57
2023-01-02T06:15:59.206Z,5.40
2023-01-02T06:21:11.488Z,4.75
2023-01-02T06:26:15.851Z,5.63
2023-01-02T06:31:18.831Z,4.68
2023-01-02T06:36:20.377Z,5.13
2023-01-02T06:41:21.807Z,5.80
2023-01-02T06:46:23.864Z,5.15
2023-01-02T06:51:25.249Z,5.13
2023-01-02T06:56:26.614Z,5.47
2023-01-02T07:01:29.897Z,5.88
2023-01-02T07:06:31.402Z,5.53
2023-01-02T07:11:32.974Z,5.60
2023-01-02T07:16:34.500Z,5.55
2023-01-02T07:21:35.907Z,5.22
2023-01-02T07:26:37.280Z,5.35
2023-01-02T07:31:38.701Z,4.50
2023-01-02T07:36:40.055Z,4.25
2023-01-02T07:41:41.448Z,3.53
2023-01-02T07:46:42.883Z,3.58
2023-01-02T07:51:44.401Z,3.10
2023-01-02T07:56:45.873Z,2.53
2023-01-02T08:01:50.120Z,2.40
2023-01-02T08:06:51.648Z,2.28
2023-01-02T08:11:53.755Z,3.40
2023-01-02T08:16:55.310Z,1.75
2023-01-02T08:21:56.853Z,1.85
2023-01-02T08:26:58.405Z,2.28
2023-01-02T08:32:00.105Z,1.67
2023-01-02T08:37:01.627Z,2.42
2023-01-02T08:42:03.405Z,3.05
2023-01-02T08:47:05.629Z,2.00
2023-01-02T08:52:07.342Z,1.63
2023-01-02T08:57:08.946Z,2.13
2023-01-02T09:02:14.970Z,2.13
2023-01-02T09:07:17.626Z,2.50
2023-01-02T09:12:19.115Z,3.15
2023-01-02T09:17:20.674Z,2.85
2023-01-02T09:22:22.238Z,2.15
2023-01-02T09:27:23.828Z,2.28
2023-01-02T09:32:25.511Z,2.50
2023-01-02T09:37:28.524Z,2.75
2023-01-02T09:42:32.319Z,3.20
2023-01-02T09:47:36.472Z,2.45
2023-01-02T09:52:43.006Z,2.28
2023-01-02T09:58:16.720Z,2.20
2023-01-02T10:03:45.110Z,2.00
2023-01-02T10:08:52.503Z,1.90
2023-01-02T10:19:38.724Z,2.38
2023-01-02T10:30:48.074Z,2.23
2023-01-02T10:35:55.505Z,2.95
2023-01-02T10:46:00.958Z,1.88
2023-01-02T10:51:06.437Z,2.20
2023-01-02T10:56:20.451Z,1.50
2023-01-02T11:01:22.855Z,2.45
2023-01-02T11:06:38.798Z,1.40
2023-01-02T11:11:58.401Z,1.63
2023-01-02T11:17:11.896Z,1.80
2023-01-02T11:22:16.911Z,1.40
2023-01-02T11:27:18.621Z,1.92
2023-01-02T11:32:27.796Z,1.58
2023-01-02T11:37:29.901Z,1.33
2023-01-02T11:43:02.757Z,1.85
2023-01-02T11:48:14.798Z,1.20
2023-01-02T11:53:26.494Z,1.35
2023-01-02T11:58:45.464Z,1.38
2023-01-02T12:03:47.553Z,1.75
2023-01-02T12:09:05.361Z,1.42
2023-01-02T12:14:23.398Z,2.80
2023-01-02T12:19:38.584Z,1.75
2023-01-02T12:25:11.768Z,2.83
2023-01-02T12:30:19.668Z,3.58
2023-01-02T12:35:47.610Z,1.55
2023-01-02T12:46:33.460Z,1.67
2023-01-02T12:52:07.369Z,1.48
2023-01-02T12:57:41.172Z,1.50
2023-01-02T13:03:01.151Z,1.75
2023-01-02T13:08:15.034Z,2.33
2023-01-02T13:13:17.038Z,2.05
2023-01-02T13:19:00.723Z,2.72
2023-01-02T13:24:03.444Z,2.85
2023-01-02T13:29:08.183Z,1.55
2023-01-02T13:34:15.416Z,2.00
2023-01-02T13:39:28.144Z,4.05
2023-01-02T13:44:36.077Z,3.78
2023-01-02T13:49:37.546Z,2.38
2023-01-02T13:54:38.933Z,2.88
2023-01-02T14:00:01.428Z,1.95
2023-01-02T14:05:41.505Z,3.28
2023-01-02T14:10:45.363Z,2.28
2023-01-02T14:16:24.789Z,2.88
2023-01-02T14:21:33.135Z,3.10
2023-01-02T14:26:37.799Z,2.10
2023-01-02T14:31:39.625Z,2.92
2023-01-02T14:36:43.177Z,2.20
2023-01-02T14:42:09.404Z,2.22
2023-01-02T14:47:19.701Z,3.65
2023-01-02T14:52:28.722Z,3.25
2023-01-02T14:57:33.976Z,3.17
2023-01-02T15:02:41.442Z,3.42
2023-01-02T15:07:52.828Z,2.72
2023-01-02T15:13:08.861Z,3.10
2023-01-02T15:18:29.311Z,3.97
2023-01-02T15:23:30.773Z,3.40
2023-01-02T15:28:33.787Z,3.90
2023-01-02T15:33:35.223Z,3.15
2023-01-02T15:38:36.681Z,3.17
2023-01-02T15:43:57.957Z,3.03
2023-01-02T15:49:00.444Z,3.83
2023-01-02T15:54:03.614Z,3.42
2023-01-02T15:59:45.075Z,3.47
2023-01-02T16:04:46.434Z,3.00
2023-01-02T16:09:55.537Z,2.85
2023-01-02T16:14:59.177Z,3.17
2023-01-02T16:20:11.587Z,4.00
2023-01-02T16:25:18.688Z,3.17
2023-01-02T16:30:32.627Z,4.57
2023-01-02T16:35:34.430Z,3.78
2023-01-02T16:40:59.966Z,4.47
2023-01-02T16:51:06.054Z,4.93
2023-01-02T16:56:10.996Z,6.85
2023-01-02T17:01:14.674Z,7.72
2023-01-02T17:06:18.631Z,6.85
2023-01-02T17:11:23.018Z,6.20
2023-01-02T17:16:24.395Z,7.72
2023-01-02T17:21:32.356Z,3.33
2023-01-02T17:26:34.478Z,1.90
2023-01-02T17:31:35.891Z,1.70
2023-01-02T17:36:37.501Z,1.20
2023-01-02T17:41:38.860Z,1.17
2023-01-02T17:52:01.506Z,1.25
2023-01-02T17:57:02.925Z,1.10
2023-01-02T18:02:06.621Z,1.33
2023-01-02T18:07:08.166Z,1.25
2023-01-02T18:12:11.001Z,0.90
2023-01-02T18:17:30.016Z,0.80
2023-01-02T18:22:31.873Z,1.38
2023-01-02T18:27:34.828Z,1.65
2023-01-02T18:32:38.617Z,0.90
2023-01-02T18:37:41.368Z,1.05
2023-01-02T18:42:45.670Z,1.00
2023-01-02T18:47:51.564Z,0.77
2023-01-02T18:52:52.988Z,1.10
2023-01-02T18:58:44.144Z,0.95
2023-01-02T19:03:47.860Z,0.90
2023-01-02T19:08:49.355Z,0.95
2023-01-02T19:13:56.823Z,0.80
2023-01-02T19:19:00.039Z,1.10
2023-01-02T19:24:04.493Z,2.05
2023-01-02T19:29:11.804Z,2.80
2023-01-02T19:34:40.894Z,1.98
2023-01-02T19:39:48.432Z,1.40
2023-01-02T19:49:56.008Z,0.60
2023-01-02T19:54:57.766Z,0.80
2023-01-02T19:59:59.122Z,0.80
2023-01-02T20:05:00.536Z,0.98
2023-01-02T20:10:02.045Z,1.30
2023-01-02T20:15:08.681Z,0.82
2023-01-02T20:20:14.862Z,1.87
2023-01-02T20:25:18.963Z,1.98
2023-01-02T20:30:24.477Z,1.25
2023-01-02T20:35:26.364Z,1.30
2023-01-02T20:40:28.017Z,1.60
2023-01-02T20:45:29.375Z,1.30
2023-01-02T20:50:30.701Z,1.98
2023-01-02T20:55:32.674Z,2.35
2023-01-02T21:00:34.468Z,1.95
2023-01-02T21:05:36.628Z,1.00
2023-01-02T21:10:38.025Z,1.55
2023-01-02T21:15:42.072Z,1.48
2023-01-02T21:20:46.723Z,1.30
2023-01-02T21:25:48.778Z,0.73
2023-01-02T21:30:50.898Z,1.30
2023-01-02T21:35:54.756Z,1.70
2023-01-02T21:41:17.263Z,2.05
2023-01-02T21:46:18.753Z,1.50
2023-01-02T21:51:20.179Z,1.63
2023-01-02T21:56:21.535Z,1.52
2023-01-02T22:01:23.017Z,1.90
2023-01-02T22:06:25.628Z,2.80
2023-01-02T22:11:45.767Z,2.15
2023-01-02T22:16:47.204Z,1.92
2023-01-02T22:21:48.712Z,2.30
2023-01-02T22:26:51.703Z,1.73
2023-01-02T22:31:54.935Z,1.85
2023-01-02T22:36:56.462Z,1.40
2023-01-02T22:42:57.800Z,1.17
2023-01-02T22:47:39.743Z,1.67
2023-01-02T22:52:41.140Z,1.48
2023-01-02T22:57:47.517Z,1.00
2023-01-02T23:02:52.770Z,1.10
2023-01-02T23:07:54.196Z,1.40
2023-01-02T23:12:55.727Z,1.50
2023-01-02T23:18:15.599Z,1.33
2023-01-02T23:23:16.911Z,1.55
2023-01-02T23:28:39.315Z,1.40
2023-01-02T23:33:39.626Z,1.27
2023-01-02T23:38:41.019Z,1.00
2023-01-02T23:43:42.348Z,1.02
2023-01-02T23:48:43.811Z,0.90
2023-01-02T23:53:45.173Z,1.17
2023-01-02T23:58:47.972Z,0.90
